createdAt,value
2018-03-18T00:01:37.712Z,-3.22
2018-03-18T00:04:03.546Z,-3.25
2018-03-18T00:06:29.370Z,-3.27
2018-03-18T00:08:55.197Z,-3.27
2018-03-18T00:11:20.989Z,-3.27
2018-03-18T00:13:46.787Z,-3.30
2018-03-18T00:16:12.582Z,-3.39
2018-03-18T00:18:38.401Z,-3.43
2018-03-18T00:21:04.181Z,-3.33
2018-03-18T00:23:29.959Z,-3.36
2018-03-18T00:25:55.914Z,-3.35
2018-03-18T00:28:21.731Z,-3.33
2018-03-18T00:30:47.519Z,-3.44
2018-03-18T00:33:13.290Z,-3.48
2018-03-18T00:35:39.103Z,-3.45
2018-03-18T00:38:05.286Z,-3.48
2018-03-18T00:40:31.070Z,-3.52
2018-03-18T00:42:56.852Z,-3.48
2018-03-18T00:45:22.654Z,-3.57
2018-03-18T00:47:48.458Z,-3.57
2018-03-18T00:50:14.250Z,-3.58
2018-03-18T00:52:40.054Z,-3.61
2018-03-18T00:55:05.863Z,-3.63
2018-03-18T00:57:31.664Z,-3.60
2018-03-18T00:59:57.461Z,-3.60
2018-03-18T01:02:23.254Z,-3.63
2018-03-18T01:04:49.050Z,-3.60
2018-03-18T01:07:14.875Z,-3.65
2018-03-18T01:09:40.663Z,-3.70
2018-03-18T01:12:06.461Z,-3.74
2018-03-18T01:14:32.252Z,-3.71
2018-03-18T01:16:58.059Z,-3.78
2018-03-18T01:19:23.867Z,-3.74
2018-03-18T01:21:49.659Z,-3.78
2018-03-18T01:24:15.447Z,-3.78
2018-03-18T01:26:41.267Z,-3.76
2018-03-18T01:29:07.078Z,-3.73
2018-03-18T01:31:32.893Z,-3.74
2018-03-18T01:33:58.733Z,-3.75
2018-03-18T01:36:24.558Z,-3.80
2018-03-18T01:38:50.339Z,-3.78
2018-03-18T01:41:16.135Z,-3.80
2018-03-18T01:43:41.928Z,-3.81
2018-03-18T01:46:07.733Z,-3.80
2018-03-18T01:48:33.527Z,-3.78
2018-03-18T01:50:59.319Z,-3.87
2018-03-18T01:53:25.211Z,-3.85
2018-03-18T01:55:50.984Z,-3.86
2018-03-18T01:58:16.803Z,-3.79
2018-03-18T02:00:42.647Z,-3.87
2018-03-18T02:03:08.454Z,-3.89
2018-03-18T02:05:34.272Z,-3.89
2018-03-18T02:08:00.061Z,-3.91
2018-03-18T02:10:25.843Z,-3.86
2018-03-18T02:12:51.638Z,-3.91
2018-03-18T02:15:17.433Z,-3.94
2018-03-18T02:17:43.225Z,-3.92
2018-03-18T02:20:09.039Z,-3.92
2018-03-18T02:22:34.850Z,-3.97
2018-03-18T02:25:00.641Z,-4.01
2018-03-18T02:27:26.444Z,-1.27
2018-03-18T02:29:52.238Z,-3.22
2018-03-18T02:32:18.057Z,-3.61
2018-03-18T02:34:43.843Z,-3.62
2018-03-18T02:37:09.621Z,-3.72
2018-03-18T02:39:35.432Z,-3.75
2018-03-18T02:42:01.219Z,-3.72
2018-03-18T02:44:27.000Z,-3.68
2018-03-18T02:46:52.813Z,-3.70
2018-03-18T02:49:18.638Z,-3.78
2018-03-18T02:51:44.448Z,-3.78
2018-03-18T02:54:10.265Z,-3.91
2018-03-18T02:56:36.059Z,-3.99
2018-03-18T02:59:01.874Z,-3.95
2018-03-18T03:01:27.684Z,-4.02
2018-03-18T03:03:53.475Z,-3.97
2018-03-18T03:06:19.276Z,-3.85
2018-03-18T03:08:45.114Z,-3.82
2018-03-18T03:11:10.878Z,-3.86
2018-03-18T03:13:36.763Z,-3.92
2018-03-18T03:16:02.579Z,-3.87
2018-03-18T03:18:28.377Z,-3.92
2018-03-18T03:20:54.198Z,-4.01
2018-03-18T03:23:19.982Z,-4.01
2018-03-18T03:25:45.772Z,-4.03
2018-03-18T03:28:11.558Z,-3.92
2018-03-18T03:30:37.338Z,-4.04
2018-03-18T03:33:03.148Z,-4.10
2018-03-18T03:35:28.939Z,-4.10
2018-03-18T03:37:54.735Z,-2.49
2018-03-18T03:40:20.566Z,-3.00
2018-03-18T03:42:46.366Z,-3.81
2018-03-18T03:45:12.171Z,-4.07
2018-03-18T03:47:37.979Z,-4.06
2018-03-18T03:50:03.782Z,-4.11
2018-03-18T03:52:29.566Z,-4.22
2018-03-18T03:54:55.406Z,-4.28
2018-03-18T03:57:21.207Z,-4.22
2018-03-18T03:59:46.999Z,-4.19
2018-03-18T04:02:12.930Z,-4.30
2018-03-18T04:04:38.740Z,-4.35
2018-03-18T04:07:04.543Z,-4.34
2018-03-18T04:09:30.377Z,-4.31
2018-03-18T04:11:56.179Z,-4.36
2018-03-18T04:14:21.978Z,-4.31
2018-03-18T04:16:47.802Z,-4.25
2018-03-18T04:19:13.601Z,-4.38
2018-03-18T04:21:39.400Z,-4.39
2018-03-18T04:24:05.243Z,-4.34
2018-03-18T04:26:31.029Z,-4.34
2018-03-18T04:28:56.821Z,-4.36
2018-03-18T04:31:22.631Z,-4.32
2018-03-18T04:33:48.426Z,-4.34
2018-03-18T04:36:14.226Z,-4.34
2018-03-18T04:38:40.054Z,-4.37
2018-03-18T04:41:05.863Z,-4.40
2018-03-18T04:43:31.651Z,-4.44
2018-03-18T04:45:57.447Z,-4.34
2018-03-18T04:48:24.187Z,-4.52
2018-03-18T04:50:49.976Z,-4.51
2018-03-18T04:53:15.789Z,-4.49
2018-03-18T04:55:41.607Z,-4.47
2018-03-18T04:58:07.410Z,-4.52
2018-03-18T05:00:33.241Z,-4.54
2018-03-18T05:02:59.059Z,-4.50
2018-03-18T05:05:24.882Z,-4.48
2018-03-18T05:07:50.720Z,-4.52
2018-03-18T05:10:16.504Z,-4.63
2018-03-18T05:12:42.292Z,-4.54
2018-03-18T05:15:08.126Z,-4.59
2018-03-18T05:17:33.911Z,-4.61
2018-03-18T05:19:59.709Z,-4.62
2018-03-18T05:22:25.513Z,-4.62
2018-03-18T05:24:51.311Z,-4.64
2018-03-18T05:27:17.124Z,-4.61
2018-03-18T05:29:42.935Z,-4.63
2018-03-18T05:32:08.749Z,-4.62
2018-03-18T05:34:34.539Z,-4.57
2018-03-18T05:37:00.335Z,-4.65
2018-03-18T05:39:26.158Z,-4.53
2018-03-18T05:41:51.949Z,-4.59
2018-03-18T05:44:17.770Z,-4.52
2018-03-18T05:46:43.589Z,-4.53
2018-03-18T05:49:09.371Z,-4.51
2018-03-18T05:51:35.153Z,-4.54
2018-03-18T05:54:00.966Z,-4.56
2018-03-18T05:56:26.793Z,-4.51
2018-03-18T05:58:52.594Z,-4.51
2018-03-18T06:01:18.400Z,-4.45
2018-03-18T06:03:44.214Z,-4.46
2018-03-18T06:06:10.004Z,-4.53
2018-03-18T06:08:35.813Z,-4.42
2018-03-18T06:11:01.643Z,-4.38
2018-03-18T06:13:27.442Z,-4.26
2018-03-18T06:15:53.234Z,-4.32
2018-03-18T06:18:19.038Z,-4.40
2018-03-18T06:20:44.837Z,-4.39
2018-03-18T06:23:10.661Z,-4.29
2018-03-18T06:25:36.466Z,-4.29
2018-03-18T06:28:02.264Z,-4.18
2018-03-18T06:30:28.102Z,-4.13
2018-03-18T06:32:53.902Z,-4.24
2018-03-18T06:35:19.688Z,-4.21
2018-03-18T06:37:45.505Z,-4.18
2018-03-18T06:40:13.039Z,-4.12
2018-03-18T06:42:38.848Z,-4.13
2018-03-18T06:45:04.647Z,-4.08
2018-03-18T06:47:30.444Z,-4.05
2018-03-18T06:49:56.268Z,-4.05
2018-03-18T06:52:22.052Z,-4.02
2018-03-18T06:54:47.843Z,-4.02
2018-03-18T06:57:13.656Z,-3.93
2018-03-18T06:59:39.443Z,-3.88
2018-03-18T07:02:05.239Z,-3.91
2018-03-18T07:04:31.050Z,-3.87
2018-03-18T07:06:56.854Z,-3.84
2018-03-18T07:09:22.648Z,-3.78
2018-03-18T07:11:48.470Z,-3.80
2018-03-18T07:14:14.273Z,-3.78
2018-03-18T07:16:40.070Z,-3.64
2018-03-18T07:19:05.883Z,-3.55
2018-03-18T07:21:31.713Z,-3.61
2018-03-18T07:23:57.548Z,-3.53
2018-03-18T07:26:23.351Z,-3.51
2018-03-18T07:28:49.130Z,-3.53
2018-03-18T07:31:14.917Z,-3.51
2018-03-18T07:33:40.707Z,-3.57
2018-03-18T07:36:06.499Z,-3.52
2018-03-18T07:38:32.316Z,-3.45
2018-03-18T07:40:58.751Z,-3.38
2018-03-18T07:43:24.616Z,-3.37
2018-03-18T07:45:50.422Z,-3.33
2018-03-18T07:48:16.245Z,-3.24
2018-03-18T07:50:42.051Z,-3.13
2018-03-18T07:53:07.880Z,-3.03
2018-03-18T07:55:33.668Z,-3.13
2018-03-18T07:57:59.463Z,-2.96
2018-03-18T08:00:25.272Z,-2.90
2018-03-18T08:02:51.053Z,-2.95
2018-03-18T08:05:16.857Z,-2.95
2018-03-18T08:07:42.675Z,-2.88
2018-03-18T08:10:08.462Z,-2.77
2018-03-18T08:12:34.260Z,-2.65
2018-03-18T08:15:00.063Z,-2.67
2018-03-18T08:17:25.859Z,-2.46
2018-03-18T08:19:51.674Z,-2.53
2018-03-18T08:22:17.460Z,-2.47
2018-03-18T08:24:43.248Z,-2.43
2018-03-18T08:27:09.051Z,-2.40
2018-03-18T08:29:34.870Z,-2.33
2018-03-18T08:32:00.659Z,-2.32
2018-03-18T08:34:26.454Z,-2.29
2018-03-18T08:36:52.240Z,-2.27
2018-03-18T08:39:18.043Z,-2.24
2018-03-18T08:41:43.854Z,-2.03
2018-03-18T08:44:09.644Z,-2.19
2018-03-18T08:46:35.554Z,-2.09
2018-03-18T08:49:01.365Z,-2.10
2018-03-18T08:53:59.826Z,-1.87
2018-03-18T08:56:25.642Z,-1.90
2018-03-18T08:58:51.448Z,-1.95
2018-03-18T09:01:17.309Z,-1.97
2018-03-18T09:03:48.347Z,-1.82
2018-03-18T09:06:14.148Z,-1.74
2018-03-18T09:08:39.990Z,-1.58
2018-03-18T09:11:05.790Z,-1.68
2018-03-18T09:13:31.583Z,-1.67
2018-03-18T09:15:57.392Z,-1.51
2018-03-18T09:18:23.214Z,-1.47
2018-03-18T09:20:49.338Z,-1.53
2018-03-18T09:23:15.131Z,-1.31
2018-03-18T09:25:40.932Z,-1.25
2018-03-18T09:28:06.859Z,-1.22
2018-03-18T09:30:32.643Z,-1.20
2018-03-18T09:32:58.430Z,-1.11
2018-03-18T09:35:24.243Z,-1.11
2018-03-18T09:37:50.175Z,-0.93
2018-03-18T09:40:15.972Z,-0.90
2018-03-18T09:42:41.783Z,-0.85
2018-03-18T09:45:07.612Z,-0.61
2018-03-18T09:47:33.508Z,-0.58
2018-03-18T09:49:59.310Z,-0.45
2018-03-18T09:52:25.154Z,-0.57
2018-03-18T09:54:50.956Z,-0.60
2018-03-18T09:57:16.769Z,-0.51
2018-03-18T09:59:42.578Z,-0.41
2018-03-18T10:02:08.746Z,-0.41
2018-03-18T10:04:35.512Z,-0.53
2018-03-18T10:07:01.324Z,-0.40
2018-03-18T10:09:28.104Z,-0.32
2018-03-18T10:11:53.969Z,-0.23
2018-03-18T10:14:19.803Z,0.01
2018-03-18T10:16:45.721Z,0.41
2018-03-18T10:19:12.206Z,0.40
2018-03-18T10:21:38.043Z,0.33
2018-03-18T10:24:03.875Z,0.14
2018-03-18T10:26:29.713Z,0.21
2018-03-18T10:28:55.604Z,0.24
2018-03-18T10:31:23.313Z,0.03
2018-03-18T10:33:49.146Z,0.05
2018-03-18T10:36:14.964Z,0.17
2018-03-18T10:38:40.763Z,0.19
2018-03-18T10:41:06.577Z,0.23
2018-03-18T10:43:32.391Z,0.07
2018-03-18T10:45:58.440Z,0.39
2018-03-18T10:48:24.261Z,0.39
2018-03-18T10:50:51.118Z,0.42
2018-03-18T10:53:16.937Z,0.44
2018-03-18T10:55:45.648Z,0.46
2018-03-18T10:58:12.055Z,0.51
2018-03-18T11:00:45.144Z,0.34
2018-03-18T11:03:11.946Z,0.44
2018-03-18T11:05:37.851Z,0.52
2018-03-18T11:08:03.665Z,0.67
2018-03-18T11:10:29.524Z,0.87
2018-03-18T11:12:55.356Z,0.78
2018-03-18T11:15:21.187Z,0.77
2018-03-18T11:17:47.010Z,0.85
2018-03-18T11:20:12.810Z,0.69
2018-03-18T11:22:39.168Z,0.89
2018-03-18T11:25:06.725Z,1.07
2018-03-18T11:27:33.489Z,0.96
2018-03-18T11:29:59.283Z,1.04
2018-03-18T11:32:25.068Z,1.11
2018-03-18T11:34:51.031Z,1.11
2018-03-18T11:37:17.440Z,0.80
2018-03-18T11:39:44.835Z,1.05
2018-03-18T11:42:10.648Z,1.12
2018-03-18T11:44:36.474Z,1.11
2018-03-18T11:47:03.073Z,1.16
2018-03-18T11:49:28.937Z,0.86
2018-03-18T11:51:55.570Z,0.94
2018-03-18T11:54:21.474Z,0.97
2018-03-18T11:56:48.903Z,0.94
2018-03-18T11:59:15.605Z,0.94
2018-03-18T12:01:41.431Z,0.93
2018-03-18T12:04:07.883Z,0.94
2018-03-18T12:06:33.720Z,1.03
2018-03-18T12:08:59.583Z,1.36
2018-03-18T12:11:25.490Z,1.46
2018-03-18T12:13:52.270Z,1.64
2018-03-18T12:16:18.147Z,1.42
2018-03-18T12:18:44.039Z,1.42
2018-03-18T12:21:11.974Z,1.64
2018-03-18T12:23:37.780Z,2.14
2018-03-18T12:26:03.627Z,1.99
2018-03-18T12:28:29.426Z,1.99
2018-03-18T12:30:55.339Z,2.05
2018-03-18T12:33:21.171Z,2.40
2018-03-18T12:35:47.135Z,2.87
2018-03-18T12:38:12.934Z,2.68
2018-03-18T12:40:38.795Z,3.14
2018-03-18T12:43:18.123Z,3.11
2018-03-18T12:45:45.697Z,3.06
2018-03-18T12:48:11.544Z,3.19
2018-03-18T12:50:37.355Z,3.42
2018-03-18T12:53:03.250Z,3.34
2018-03-18T12:55:29.071Z,3.91
2018-03-18T12:57:54.873Z,4.85
2018-03-18T13:00:21.637Z,3.89
2018-03-18T13:02:48.587Z,4.01
2018-03-18T13:05:14.892Z,4.23
2018-03-18T13:07:40.990Z,4.34
2018-03-18T13:10:07.938Z,3.64
2018-03-18T13:12:33.975Z,4.49
2018-03-18T13:15:00.625Z,4.42
2018-03-18T13:17:27.732Z,4.32
2018-03-18T13:19:53.898Z,4.04
2018-03-18T13:22:19.755Z,3.76
2018-03-18T13:24:45.580Z,3.70
2018-03-18T13:27:11.391Z,4.33
2018-03-18T13:29:37.195Z,4.34
2018-03-18T13:32:03.996Z,4.44
2018-03-18T13:34:30.524Z,4.33
2018-03-18T13:36:56.737Z,4.09
2018-03-18T13:39:22.492Z,4.63
2018-03-18T13:41:48.923Z,4.38
2018-03-18T13:44:15.160Z,4.57
2018-03-18T13:46:40.994Z,4.61
2018-03-18T13:49:07.182Z,4.64
2018-03-18T13:51:33.381Z,4.60
2018-03-18T13:53:59.332Z,5.01
2018-03-18T13:56:25.143Z,4.50
2018-03-18T13:58:51.295Z,4.97
2018-03-18T14:01:17.099Z,5.09
2018-03-18T14:03:43.919Z,5.28
2018-03-18T14:06:09.756Z,4.99
2018-03-18T14:08:35.581Z,5.15
2018-03-18T14:11:02.516Z,4.78
2018-03-18T14:13:28.359Z,5.29
2018-03-18T14:15:54.173Z,5.35
2018-03-18T14:18:19.954Z,5.00
2018-03-18T14:20:45.786Z,4.77
2018-03-18T14:23:11.650Z,4.74
2018-03-18T14:25:37.472Z,4.17
2018-03-18T14:28:03.334Z,3.56
2018-03-18T14:30:29.656Z,3.18
2018-03-18T14:32:55.469Z,3.09
2018-03-18T14:35:24.484Z,2.96
2018-03-18T14:37:50.448Z,2.99
2018-03-18T14:40:16.330Z,2.73
2018-03-18T14:42:42.118Z,2.43
2018-03-18T14:45:07.927Z,2.20
2018-03-18T14:47:33.747Z,1.94
2018-03-18T14:50:00.748Z,2.10
2018-03-18T14:52:26.575Z,1.87
2018-03-18T14:54:52.435Z,1.83
2018-03-18T14:57:18.511Z,1.76
2018-03-18T14:59:44.379Z,1.88
2018-03-18T15:02:10.191Z,1.98
2018-03-18T15:04:36.816Z,2.02
2018-03-18T15:07:05.879Z,2.10
2018-03-18T15:09:32.011Z,1.96
2018-03-18T15:11:57.808Z,1.69
2018-03-18T15:14:24.837Z,1.51
2018-03-18T15:16:52.138Z,1.49
2018-03-18T15:19:18.552Z,1.80
2018-03-18T15:21:44.421Z,4.67
2018-03-18T15:24:10.620Z,3.08
2018-03-18T15:26:36.443Z,1.79
2018-03-18T15:29:02.421Z,1.68
2018-03-18T15:31:28.831Z,1.72
2018-03-18T15:33:55.798Z,1.72
2018-03-18T15:36:22.546Z,1.68
2018-03-18T15:38:48.354Z,1.55
2018-03-18T15:41:14.145Z,1.33
2018-03-18T15:43:39.975Z,1.17
2018-03-18T15:46:05.769Z,1.06
2018-03-18T15:48:31.957Z,1.12
2018-03-18T15:50:57.731Z,1.09
2018-03-18T15:53:23.543Z,1.12
2018-03-18T15:55:50.291Z,1.17
2018-03-18T15:58:16.330Z,1.14
2018-03-18T16:00:42.154Z,1.07
2018-03-18T16:03:08.232Z,0.89
2018-03-18T16:05:34.033Z,0.86
2018-03-18T16:07:59.818Z,0.83
2018-03-18T16:10:25.713Z,0.84
2018-03-18T16:12:51.504Z,1.18
2018-03-18T16:15:17.323Z,1.14
2018-03-18T16:17:43.227Z,0.87
2018-03-18T16:20:09.056Z,0.76
2018-03-18T16:22:34.877Z,0.68
2018-03-18T16:25:00.705Z,0.60
2018-03-18T16:27:26.602Z,0.65
2018-03-18T16:30:04.815Z,0.50
2018-03-18T16:32:30.623Z,0.41
2018-03-18T16:34:56.443Z,0.49
2018-03-18T16:37:22.551Z,0.49
2018-03-18T16:39:48.386Z,0.45
2018-03-18T16:42:14.180Z,0.44
2018-03-18T16:44:39.997Z,0.38
2018-03-18T16:47:05.786Z,0.32
2018-03-18T16:49:31.575Z,0.34
2018-03-18T16:51:57.417Z,0.32
2018-03-18T16:54:23.229Z,0.34
2018-03-18T16:56:49.071Z,0.27
2018-03-18T16:59:14.908Z,0.23
2018-03-18T17:01:40.723Z,0.21
2018-03-18T17:04:06.585Z,0.18
2018-03-18T17:06:32.439Z,0.12
2018-03-18T17:08:58.471Z,-0.01
2018-03-18T17:11:24.315Z,0.02
2018-03-18T17:13:50.141Z,-0.09
2018-03-18T17:16:15.935Z,0.89
2018-03-18T17:18:41.707Z,1.82
2018-03-18T17:21:07.519Z,0.43
2018-03-18T17:23:33.320Z,0.23
2018-03-18T17:25:59.131Z,-0.01
2018-03-18T17:28:25.244Z,-0.09
2018-03-18T17:30:51.040Z,-0.16
2018-03-18T17:33:16.860Z,-0.24
2018-03-18T17:35:42.660Z,-0.37
2018-03-18T17:38:08.505Z,-0.34
2018-03-18T17:40:34.493Z,-0.27
2018-03-18T17:43:00.292Z,-0.34
2018-03-18T17:45:38.428Z,-0.37
2018-03-18T17:48:16.663Z,-0.42
2018-03-18T17:50:55.397Z,-0.41
2018-03-18T17:53:33.652Z,-0.48
2018-03-18T17:56:11.960Z,-0.46
2018-03-18T17:58:37.777Z,-0.45
2018-03-18T18:01:04.238Z,-0.60
2018-03-18T18:03:32.682Z,-0.65
2018-03-18T18:05:58.496Z,-0.64
2018-03-18T18:08:24.303Z,-0.54
2018-03-18T18:10:50.131Z,-0.63
2018-03-18T18:13:15.911Z,-0.67
2018-03-18T18:15:42.151Z,-0.68
2018-03-18T18:18:07.993Z,-0.67
2018-03-18T18:20:34.099Z,-0.73
2018-03-18T18:22:59.915Z,-0.81
2018-03-18T18:25:25.716Z,-0.80
2018-03-18T18:27:51.515Z,-0.78
2018-03-18T18:30:17.403Z,-0.83
2018-03-18T18:32:43.203Z,-0.84
2018-03-18T18:35:09.002Z,-0.94
2018-03-18T18:37:35.614Z,-0.90
2018-03-18T18:40:01.425Z,-0.90
2018-03-18T18:42:27.234Z,-0.96
2018-03-18T18:44:53.048Z,-1.03
2018-03-18T18:47:18.842Z,-0.99
2018-03-18T18:49:45.041Z,-1.00
2018-03-18T18:52:10.819Z,-0.94
2018-03-18T18:54:36.608Z,-0.95
2018-03-18T18:57:02.402Z,-1.01
2018-03-18T18:59:28.215Z,-1.05
2018-03-18T19:01:54.032Z,-0.95
2018-03-18T19:04:19.832Z,-0.96
2018-03-18T19:06:45.638Z,-1.04
2018-03-18T19:09:11.458Z,-1.12
2018-03-18T19:11:37.246Z,-1.06
2018-03-18T19:14:03.026Z,-1.02
2018-03-18T19:16:28.811Z,-0.82
2018-03-18T19:18:54.597Z,-0.69
2018-03-18T19:21:20.403Z,-0.43
2018-03-18T19:23:46.219Z,-0.51
2018-03-18T19:26:12.010Z,-0.35
2018-03-18T19:28:37.795Z,-0.25
2018-03-18T19:31:03.574Z,-0.27
2018-03-18T19:33:29.367Z,-0.42
2018-03-18T19:35:55.161Z,-0.58
2018-03-18T19:38:20.958Z,-0.52
2018-03-18T19:40:46.826Z,-0.92
2018-03-18T19:43:12.737Z,-1.10
2018-03-18T19:45:38.565Z,-1.18
2018-03-18T19:48:04.371Z,-1.11
2018-03-18T19:50:30.864Z,-1.12
2018-03-18T19:52:56.683Z,-1.11
2018-03-18T19:55:22.510Z,-1.21
2018-03-18T19:57:48.360Z,-1.22
2018-03-18T20:00:15.164Z,-1.35
2018-03-18T20:02:42.072Z,-1.26
2018-03-18T20:05:07.961Z,-1.28
2018-03-18T20:07:33.867Z,-1.27
2018-03-18T20:09:59.705Z,-1.29
2018-03-18T20:12:25.515Z,-1.34
2018-03-18T20:14:52.002Z,-1.35
2018-03-18T20:17:17.807Z,-1.38
2018-03-18T20:19:43.624Z,-1.41
2018-03-18T20:22:09.441Z,-1.41
2018-03-18T20:24:36.309Z,-1.42
2018-03-18T20:27:02.166Z,-1.38
2018-03-18T20:29:27.976Z,-1.31
2018-03-18T20:31:53.791Z,-1.42
2018-03-18T20:34:20.311Z,-1.26
2018-03-18T20:36:46.134Z,-1.46
2018-03-18T20:39:12.008Z,-1.51
2018-03-18T20:41:38.467Z,-1.41
2018-03-18T20:44:04.988Z,-1.47
2018-03-18T20:46:30.961Z,-1.45
2018-03-18T20:48:56.767Z,-1.42
2018-03-18T20:51:22.564Z,-1.52
2018-03-18T20:53:48.355Z,-1.58
2018-03-18T20:56:14.160Z,-1.39
2018-03-18T20:58:39.981Z,-1.44
2018-03-18T21:01:05.788Z,-1.53
2018-03-18T21:03:31.610Z,-1.63
2018-03-18T21:05:57.785Z,-1.64
2018-03-18T21:08:23.654Z,-1.69
2018-03-18T21:10:49.515Z,-1.57
2018-03-18T21:13:15.388Z,-1.50
2018-03-18T21:15:41.182Z,-1.64
2018-03-18T21:18:07.992Z,-1.67
2018-03-18T21:20:34.225Z,-1.62
2018-03-18T21:23:00.110Z,-1.65
2018-03-18T21:25:25.916Z,-1.65
2018-03-18T21:27:51.767Z,-1.69
2018-03-18T21:32:50.141Z,-1.72
2018-03-18T21:35:15.948Z,-1.77
2018-03-18T21:37:41.846Z,-1.86
2018-03-18T21:40:07.669Z,-1.78
2018-03-18T21:42:33.597Z,-1.77
2018-03-18T21:44:59.462Z,-1.75
2018-03-18T21:47:25.351Z,-1.74
2018-03-18T21:49:51.443Z,-1.75
2018-03-18T21:52:17.238Z,-1.75
2018-03-18T21:54:43.164Z,-1.70
2018-03-18T21:57:08.968Z,-1.78
2018-03-18T21:59:34.850Z,-1.81
2018-03-18T22:02:00.686Z,-1.82
2018-03-18T22:04:26.578Z,-1.90
2018-03-18T22:06:52.424Z,-1.81
2018-03-18T22:09:18.254Z,-1.84
2018-03-18T22:11:44.059Z,-1.08
2018-03-18T22:14:09.922Z,-1.57
2018-03-18T22:16:36.106Z,-1.78
2018-03-18T22:19:01.918Z,-1.78
2018-03-18T22:21:27.734Z,-1.85
2018-03-18T22:23:53.547Z,-1.71
2018-03-18T22:26:19.424Z,-1.80
2018-03-18T22:28:45.247Z,-1.84
2018-03-18T22:31:11.059Z,-1.94
2018-03-18T22:33:37.219Z,-1.70
2018-03-18T22:36:03.052Z,-1.78
2018-03-18T22:38:28.878Z,-1.74
2018-03-18T22:40:54.706Z,-1.60
2018-03-18T22:43:20.530Z,-1.71
2018-03-18T22:45:46.335Z,-1.66
2018-03-18T22:48:12.226Z,-1.69
2018-03-18T22:50:38.114Z,-1.68
2018-03-18T22:53:03.955Z,-1.66
2018-03-18T22:55:30.286Z,-1.80
2018-03-18T22:57:56.140Z,-1.74
2018-03-18T23:00:21.978Z,-1.66
2018-03-18T23:02:47.806Z,-1.70
2018-03-18T23:05:13.625Z,-1.59
2018-03-18T23:07:39.442Z,-1.61
2018-03-18T23:10:05.363Z,-1.67
2018-03-18T23:12:31.178Z,-1.93
2018-03-18T23:14:57.014Z,-2.10
2018-03-18T23:17:22.875Z,-2.19
2018-03-18T23:19:50.058Z,-1.98
2018-03-18T23:22:15.888Z,-2.02
2018-03-18T23:24:41.685Z,-2.15
2018-03-18T23:27:07.483Z,-2.16
2018-03-18T23:29:33.296Z,-2.21
2018-03-18T23:31:59.113Z,-2.18
2018-03-18T23:34:24.908Z,-2.22
2018-03-18T23:36:50.686Z,-2.22
2018-03-18T23:39:16.479Z,-2.28
2018-03-18T23:41:42.322Z,-2.24
2018-03-18T23:44:08.124Z,-2.31
2018-03-18T23:46:33.965Z,-2.29
2018-03-18T23:48:59.792Z,-2.33
2018-03-18T23:51:25.572Z,-2.26
2018-03-18T23:53:51.364Z,-2.33
2018-03-18T23:56:17.147Z,-2.34
2018-03-18T23:58:42.973Z,-2.33
